Station: Moree  

  Atmospheric Gas Attenuation - ITU Rec 676-11   ----------------- dB/100km -----------------
Date Time Temp RH % AH g/m3 Dew Point Wind Direction Speed kph Gust kph Barometer mB Rainfall Since 9am 24GHz 47GHz 76GHz 122GHz 134GHz 241GHz
08/05 12:30 16.8 40 5.72 3.1 35 44 1022.5 0 13.4 21.1 28.2 73.3 60.6 206.1
08/05 12:20 16.7 40 5.68 3 37 41 1022.7 0 13.3 21.1 28.1 73.0 60.2 204.8
08/05 12:10 16.1 41 5.62 2.9 37 44 1022.8 0 13.2 21.1 28.1 73.0 60.0 203.9
08/05 12:00 16.7 41 5.83 3.4 35 46 1022.8 0 13.6 21.3 28.6 74.4 61.9 210.9
08/05 11:50 16.3 42 5.83 3.4 32 35 1023 0 13.6 21.4 28.7 74.8 62.3 212.0
08/05 11:40 15.9 42 5.69 3 33 39 1023 0 13.3 21.3 28.4 73.8 60.9 207.3
08/05 11:30 15.9 43 5.82 3.4 33 43 1023.2 0 13.6 21.5 28.9 75.1 62.5 212.6
08/05 11:20 15.6 43 5.72 3.1 33 39 1023.3 0 13.4 21.4 28.6 74.4 61.5 209.3
08/05 11:10 15.7 43 5.75 3.2 33 39 1023.6 0 13.5 21.4 28.7 74.6 61.8 210.4
08/05 11:00 15 44 5.64 2.9 32 39 1023.7 0 13.3 21.4 28.6 74.3 61.1 207.7
08/05 10:50 14.6 44 5.51 2.5 1024 0 13.0 21.4 28.2 73.4 59.9 203.4
08/05 10:40 14.4 45 5.56 2.6 33 43 1024.1 0 13.1 21.5 28.5 74.1 60.6 206.0
08/05 10:30 14.4 46 5.69 2.9 35 44 1024.1 0 13.4 21.7 29.0 75.3 62.2 211.3
08/05 10:20 14.1 48 5.83 3.3 33 39 1024.5 0 13.7 22.0 29.6 77.0 64.1 218.0
08/05 10:10 13.4 48 5.58 2.6 35 41 1024.6 0 13.2 21.8 28.9 75.2 61.7 209.4
08/05 10:00 13.4 49 5.7 2.9 35 44 1024.6 0 13.4 21.9 29.4 76.4 63.1 214.5
08/05 09:50 13.1 48 5.48 2.4 32 37 1024.7 0 13.0 21.7 28.7 74.6 60.7 206.0
08/05 09:40 12.6 49 5.42 2.2 32 37 1024.7 0 12.9 21.7 28.6 74.4 60.4 204.8
08/05 09:30 12.5 50 5.5 2.4 32 41 1024.6 0 13.0 21.9 29.0 75.3 61.4 208.4
08/05 09:20 11.6 51 5.3 1.8 32 35 1024.7 0 12.7 21.8 28.5 74.2 59.7 202.2
08/05 09:10 11.3 52 5.3 1.8 33 41 1024.7 0 12.7 21.9 28.7 74.5 59.9 203.0
08/05 09:00 10.8 53 5.24 1.6 28 35 1024.7 0 12.6 21.9 28.6 74.3 59.5 201.7
08/05 08:50 10.3 54 5.17 1.4 30 33 1024.8 0 12.4 21.9 28.5 74.1 59.1 200.0
08/05 08:40 9.6 55 5.04 1 24 26 1024.8 0 12.2 21.9 28.3 73.5 58.0 196.1
08/05 08:30 9.2 56 5 0.9 26 32 1024.7 0 12.1 21.9 28.3 73.4 57.8 195.3
08/05 08:20 8.8 56 4.88 0.5 26 30 1024.8 0 11.9 21.8 28.0 72.6 56.6 191.1
08/05 08:10 8.2 58 4.86 0.4 20 24 1024.8 0 11.8 21.9 28.1 73.0 56.8 191.7
08/05 08:00 7.4 61 4.85 0.4 20 26 1024.7 0 11.8 22.1 28.3 73.6 57.2 193.1
08/05 07:50 6.7 63 4.79 0.2 20 20 1024.8 0 11.7 22.2 28.4 73.6 57.0 192.2
08/05 07:40 6 66 4.79 0.1 19 22 1024.8 0 11.8 22.4 28.6 74.3 57.5 193.9
08/05 07:30 5.1 70 4.79 0.1 17 22 1024.6 0 11.8 22.6 28.9 75.1 58.2 196.1
08/05 07:20 4.1 73 4.68 -0.3 17 19 1024.6 0 11.6 22.7 28.9 74.9 57.5 193.5
08/05 07:10 3.4 75 4.58 -0.6 15 17 1024.5 0 11.4 22.7 28.7 74.5 56.7 190.6
08/05 07:00 3.2 75 4.52 -0.8 13 17 1024.4 0 11.3 22.6 28.5 74.1 56.0 188.3
08/05 06:50 3 76 4.52 -0.8 11 11 1024.5 0 11.3 22.7 28.6 74.3 56.2 188.8
08/05 06:40 2.9 76 4.49 -0.9 15 15 1024.5 0 11.2 22.7 28.5 74.0 55.9 187.7
08/05 06:30 2.8 76 4.46 -1 11 13 1024.4 0 11.2 22.6 28.4 73.8 55.5 186.5
08/05 06:20 2.9 77 4.55 -0.7 11 13 1024.5 0 11.3 22.7 28.8 74.7 56.7 190.4
08/05 06:10 2.9 77 4.55 -0.7 11 11 1024.4 0 11.3 22.7 28.8 74.7 56.7 190.4
08/05 06:00 2.8 77 4.52 -0.8 11 13 1024.3 0 11.3 22.7 28.7 74.4 56.3 189.3
08/05 05:50 2.7 77 4.49 -0.9 11 13 1024.3 0 11.2 22.7 28.6 74.2 56.0 188.1
08/05 05:40 2.8 76 4.46 -1 9 9 1024.2 0 11.2 22.6 28.4 73.8 55.5 186.5
08/05 05:30 3.1 75 4.49 -0.9 11 13 1024.1 0 11.2 22.6 28.4 73.8 55.7 187.2
08/05 05:20 2.9 76 4.49 -0.9 13 13 1024.2 0 11.2 22.6 28.5 74.0 55.9 187.6
08/05 05:10 2.9 74 4.37 -1.3 15 15 1024 0 11.0 22.4 28.0 72.7 54.3 182.1
08/05 05:00 3.2 73 4.4 -1.2 13 13 1024 0 11.0 22.4 28.1 72.8 54.5 182.8
08/05 04:50 3.1 75 4.49 -0.9 13 15 1024 0 11.2 22.6 28.4 73.8 55.7 187.1
08/05 04:40 3.1 74 4.43 -1.1 13 13 1023.9 0 11.1 22.5 28.2 73.2 54.9 184.4
08/05 04:30 3.3 73 4.43 -1.1 9 11 1023.7 0 11.1 22.4 28.1 73.0 54.8 183.9
08/05 04:20 3.4 73 4.46 -1 9 11 1023.9 0 11.1 22.5 28.2 73.2 55.1 185.1
08/05 04:10 3.3 74 4.49 -0.9 7 9 1023.9 0 11.2 22.5 28.4 73.6 55.6 186.7
08/05 04:00 3.2 74 4.46 -1 6 7 1023.8 0 11.1 22.5 28.3 73.4 55.2 185.5
08/05 03:50 3.2 74 4.46 -1 2 6 1023.9 0 11.1 22.5 28.3 73.4 55.2 185.5
08/05 03:40 3.5 73 4.49 -0.9 7 9 1023.8 0 11.2 22.5 28.3 73.4 55.4 186.2
08/05 03:30 3.6 72 4.46 -1 7 9 1023.6 0 11.1 22.4 28.1 73.0 54.9 184.5
08/05 03:20 3.1 75 4.49 -0.9 7 7 1023.8 0 11.2 22.6 28.4 73.8 55.7 187.1
08/05 03:10 3.3 73 4.43 -1.1 7 7 1023.8 0 11.1 22.4 28.1 73.0 54.8 183.9
08/05 03:00 3.7 72 4.49 -0.9 9 11 1023.8 0 11.2 22.4 28.2 73.2 55.3 185.7
08/05 02:50 3.8 69 4.33 -1.4 11 11 1023.7 0 10.8 22.1 27.6 71.5 53.1 178.2
08/05 02:40 4 70 4.45 -1 7 9 1023.6 0 11.1 22.3 28.0 72.5 54.5 183.2
08/05 02:30 3.8 71 4.46 -1 9 11 1023.5 0 11.1 22.3 28.1 72.8 54.8 184.1
08/05 02:20 3.7 72 4.49 -0.9 9 11 1023.4 0 11.2 22.4 28.2 73.2 55.2 185.6
08/05 02:10 3.9 70 4.42 -1.1 7 9 1023.4 0 11.0 22.3 27.9 72.3 54.2 182.0
08/05 02:00 4.6 67 4.44 -1 15 17 1023.3 0 11.1 22.1 27.7 71.9 54.0 181.3
08/05 01:50 4.3 68 4.41 -1.1 13 13 1023.4 0 11.0 22.1 27.7 71.8 53.8 180.6
08/05 01:40 4.2 68 4.39 -1.2 13 13 1023.3 0 11.0 22.1 27.6 71.7 53.6 180.0
08/05 01:30 4.8 65 4.36 -1.2 15 15 1023.3 0 10.9 21.9 27.3 70.9 52.8 177.3
08/05 01:20 4.7 65 4.33 -1.3 13 13 1023.3 0 10.8 21.9 27.2 70.6 52.5 176.2
08/05 01:10 4.8 66 4.43 -1 13 13 1023.4 0 11.0 22.0 27.6 71.6 53.7 180.4
08/05 01:00 4.3 68 4.41 -1.1 13 15 1023.4 0 11.0 22.1 27.7 71.8 53.8 180.6
08/05 00:50 5.3 64 4.44 -0.9 15 15 1023.4 0 11.0 21.9 27.5 71.2 53.5 179.7
08/05 00:40 5.6 63 4.46 -0.9 15 15 1023.4 0 11.1 21.9 27.4 71.2 53.6 179.9
08/05 00:20 6.4 59 4.4 -1 13 15 1023.4 0 10.9 21.6 26.9 69.9 52.3 175.5
08/05 00:10 6.5 59 4.43 -0.9 17 17 1023.4 0 11.0 21.6 27.0 70.1 52.6 176.6
08/05 00:00 6.8 57 4.36 -1.1 20 22 1023.4 0 10.8 21.5 26.7 69.1 51.5 172.9
07/05 23:50 7 57 4.42 -0.9 20 22 1023.3 0 10.9 21.5 26.8 69.5 52.1 175.1
07/05 23:40 6.1 60 4.39 -1.1 17 17 1023.4 0 10.9 21.7 27.0 70.0 52.3 175.8
07/05 23:30 5.9 60 4.33 -1.3 19 22 1023.5 0 10.8 21.6 26.9 69.6 51.7 173.6
07/05 23:20 5.8 60 4.3 -1.3 17 19 1023.4 0 10.7 21.6 26.8 69.4 51.4 172.5
07/05 23:10 5.8 60 4.3 -1.3 15 15 1023.4 0 10.7 21.6 26.8 69.4 51.4 172.5
07/05 23:00 5.8 60 4.3 -1.3 17 17 1023.3 0 10.7 21.6 26.8 69.4 51.4 172.5
07/05 22:50 5.5 60 4.22 -1.6 15 15 1023.4 0 10.6 21.6 26.6 68.8 50.6 169.6
07/05 22:40 5.8 58 4.16 -1.8 15 17 1023.4 0 10.4 21.4 26.2 68.0 49.7 166.4
07/05 22:30 6.6 56 4.23 -1.5 17 19 1023.3 0 10.5 21.3 26.2 68.0 50.0 167.7
07/05 22:20 6.6 55 4.15 -1.8 15 15 1023.6 0 10.4 21.2 26.0 67.2 49.1 164.3
07/05 22:10 6.8 55 4.21 -1.6 17 17 1023.7 0 10.5 21.3 26.1 67.6 49.7 166.5
07/05 22:00 7.1 54 4.21 -1.6 15 19 1023.4 0 10.5 21.2 26.0 67.4 49.5 165.8
07/05 21:50 7.6 52 4.19 -1.6 17 17 1023.6 0 10.4 21.0 25.8 66.8 48.9 164.0
07/05 21:40 8 51 4.22 -1.5 17 17 1023.4 0 10.5 21.0 25.8 66.7 49.0 164.4
07/05 21:30 8.4 49 4.16 -1.7 20 26 1023.4 0 10.3 20.8 25.4 65.8 48.1 161.1
07/05 21:20 8.8 48 4.18 -1.6 19 20 1023.4 0 10.4 20.7 25.4 65.7 48.1 161.1
07/05 21:10 9 47 4.14 -1.7 22 26 1023.3 0 10.3 20.6 25.2 65.1 47.5 159.1
07/05 21:00 9.3 46 4.14 -1.7 24 30 1023.3 0 10.3 20.6 25.1 64.9 47.3 158.5
07/05 20:50 9.3 46 4.14 -1.7 24 28 1023.1 0 10.3 20.6 25.1 64.9 47.3 158.4
07/05 20:40 9.1 47 4.17 -1.6 22 26 1023 0 10.3 20.6 25.2 65.3 47.8 160.1
07/05 20:30 8.9 47 4.12 -1.8 20 26 1023 0 10.2 20.6 25.1 65.0 47.3 158.4
07/05 20:20 8.9 47 4.12 -1.8 19 22 1022.8 0 10.2 20.6 25.1 65.0 47.3 158.4
07/05 20:10 9.2 46 4.11 -1.8 19 22 1022.8 0 10.2 20.5 25.0 64.6 47.0 157.4
07/05 20:00 9.8 44 4.08 -1.9 19 24 1022.8 0 10.1 20.4 24.7 63.9 46.3 155.0
07/05 19:50 9.7 45 4.15 -1.6 20 26 1022.7 0 10.3 20.5 25.0 64.6 47.2 158.0

Last Refresh: 08-May-2026 12:08:52

Bureau of Meteorology